sensor_id;sensor_type;location;lat;lon;timestamp;P1;durP1;ratioP1;P2;durP2;ratioP2
26710;SDS011;18311;52.754;18.118;2022-08-04T00:00:13;5.97;;;5.30;;
26710;SDS011;18311;52.754;18.118;2022-08-04T00:02:17;5.80;;;5.30;;
26710;SDS011;18311;52.754;18.118;2022-08-04T00:05:04;5.67;;;5.08;;
26710;SDS011;18311;52.754;18.118;2022-08-04T00:07:44;5.53;;;4.97;;
26710;SDS011;18311;52.754;18.118;2022-08-04T00:10:32;6.20;;;5.60;;
26710;SDS011;18311;52.754;18.118;2022-08-04T00:13:05;5.92;;;5.10;;
26710;SDS011;18311;52.754;18.118;2022-08-04T00:15:38;5.12;;;4.72;;
26710;SDS011;18311;52.754;18.118;2022-08-04T00:18:10;6.12;;;5.53;;
26710;SDS011;18311;52.754;18.118;2022-08-04T00:20:44;5.80;;;5.30;;
26710;SDS011;18311;52.754;18.118;2022-08-04T00:23:15;6.87;;;5.83;;
26710;SDS011;18311;52.754;18.118;2022-08-04T00:25:47;6.87;;;5.67;;
26710;SDS011;18311;52.754;18.118;2022-08-04T00:28:20;6.35;;;5.67;;
26710;SDS011;18311;52.754;18.118;2022-08-04T00:30:52;6.97;;;6.20;;
26710;SDS011;18311;52.754;18.118;2022-08-04T00:33:24;7.78;;;6.97;;
26710;SDS011;18311;52.754;18.118;2022-08-04T00:35:56;7.78;;;7.00;;
26710;SDS011;18311;52.754;18.118;2022-08-04T00:38:29;7.42;;;6.70;;
26710;SDS011;18311;52.754;18.118;2022-08-04T00:43:51;6.92;;;6.22;;
26710;SDS011;18311;52.754;18.118;2022-08-04T00:46:31;6.47;;;5.87;;
26710;SDS011;18311;52.754;18.118;2022-08-04T01:00:13;6.75;;;6.05;;
26710;SDS011;18311;52.754;18.118;2022-08-04T01:03:01;6.45;;;5.85;;
26710;SDS011;18311;52.754;18.118;2022-08-04T01:05:57;5.97;;;5.47;;
26710;SDS011;18311;52.754;18.118;2022-08-04T01:11:24;7.70;;;5.75;;
26710;SDS011;18311;52.754;18.118;2022-08-04T01:13:59;6.60;;;6.00;;
26710;SDS011;18311;52.754;18.118;2022-08-04T01:16:29;6.47;;;5.87;;
26710;SDS011;18311;52.754;18.118;2022-08-04T01:19:07;6.75;;;6.05;;
26710;SDS011;18311;52.754;18.118;2022-08-04T01:21:47;5.85;;;5.28;;
26710;SDS011;18311;52.754;18.118;2022-08-04T01:24:23;6.55;;;5.90;;
26710;SDS011;18311;52.754;18.118;2022-08-04T01:27:02;6.42;;;5.83;;
26710;SDS011;18311;52.754;18.118;2022-08-04T01:29:33;7.03;;;6.33;;
26710;SDS011;18311;52.754;18.118;2022-08-04T01:32:13;7.15;;;6.47;;
26710;SDS011;18311;52.754;18.118;2022-08-04T01:34:51;6.70;;;6.10;;
26710;SDS011;18311;52.754;18.118;2022-08-04T01:40:14;6.87;;;6.28;;
26710;SDS011;18311;52.754;18.118;2022-08-04T01:42:46;6.58;;;5.72;;
26710;SDS011;18311;52.754;18.118;2022-08-04T01:45:20;6.78;;;5.90;;
26710;SDS011;18311;52.754;18.118;2022-08-04T01:47:54;6.45;;;5.85;;
26710;SDS011;18311;52.754;18.118;2022-08-04T01:50:26;6.83;;;6.22;;
26710;SDS011;18311;52.754;18.118;2022-08-04T01:52:59;6.85;;;6.25;;
26710;SDS011;18311;52.754;18.118;2022-08-04T01:55:31;6.97;;;6.28;;
26710;SDS011;18311;52.754;18.118;2022-08-04T01:58:05;6.95;;;6.35;;
26710;SDS011;18311;52.754;18.118;2022-08-04T02:00:37;6.80;;;6.20;;
26710;SDS011;18311;52.754;18.118;2022-08-04T02:03:11;7.30;;;6.60;;
26710;SDS011;18311;52.754;18.118;2022-08-04T02:05:42;7.62;;;6.92;;
26710;SDS011;18311;52.754;18.118;2022-08-04T02:08:27;7.25;;;6.65;;
26710;SDS011;18311;52.754;18.118;2022-08-04T02:11:14;7.58;;;6.85;;
26710;SDS011;18311;52.754;18.118;2022-08-04T02:13:50;7.28;;;6.58;;
26710;SDS011;18311;52.754;18.118;2022-08-04T02:22:15;7.10;;;6.40;;
26710;SDS011;18311;52.754;18.118;2022-08-04T02:24:45;9.05;;;6.60;;
26710;SDS011;18311;52.754;18.118;2022-08-04T02:27:20;7.17;;;6.55;;
26710;SDS011;18311;52.754;18.118;2022-08-04T02:32:26;7.40;;;6.70;;
26710;SDS011;18311;52.754;18.118;2022-08-04T02:35:10;7.42;;;6.72;;
26710;SDS011;18311;52.754;18.118;2022-08-04T02:37:37;7.35;;;6.65;;
26710;SDS011;18311;52.754;18.118;2022-08-04T02:40:11;7.47;;;6.78;;
26710;SDS011;18311;52.754;18.118;2022-08-04T02:42:43;7.58;;;6.78;;
26710;SDS011;18311;52.754;18.118;2022-08-04T02:45:17;7.58;;;6.87;;
26710;SDS011;18311;52.754;18.118;2022-08-04T02:47:48;7.40;;;6.70;;
26710;SDS011;18311;52.754;18.118;2022-08-04T02:50:23;7.60;;;7.00;;
26710;SDS011;18311;52.754;18.118;2022-08-04T02:52:59;7.60;;;6.90;;
26710;SDS011;18311;52.754;18.118;2022-08-04T02:55:36;8.20;;;7.00;;
26710;SDS011;18311;52.754;18.118;2022-08-04T02:58:10;7.72;;;7.03;;
26710;SDS011;18311;52.754;18.118;2022-08-04T03:00:43;7.62;;;6.92;;
26710;SDS011;18311;52.754;18.118;2022-08-04T03:03:18;7.58;;;6.90;;
26710;SDS011;18311;52.754;18.118;2022-08-04T03:08:54;7.37;;;6.70;;
26710;SDS011;18311;52.754;18.118;2022-08-04T03:11:52;7.83;;;7.08;;
26710;SDS011;18311;52.754;18.118;2022-08-04T03:35:09;7.97;;;7.28;;
26710;SDS011;18311;52.754;18.118;2022-08-04T03:38:15;7.80;;;6.85;;
26710;SDS011;18311;52.754;18.118;2022-08-04T03:40:34;7.58;;;6.90;;
26710;SDS011;18311;52.754;18.118;2022-08-04T03:58:10;7.90;;;7.15;;
26710;SDS011;18311;52.754;18.118;2022-08-04T04:00:43;10.03;;;7.00;;
26710;SDS011;18311;52.754;18.118;2022-08-04T04:12:17;10.65;;;7.58;;
26710;SDS011;18311;52.754;18.118;2022-08-04T04:29:22;8.28;;;7.47;;
26710;SDS011;18311;52.754;18.118;2022-08-04T04:31:51;8.48;;;7.58;;
26710;SDS011;18311;52.754;18.118;2022-08-04T04:56:33;8.85;;;8.15;;
26710;SDS011;18311;52.754;18.118;2022-08-04T04:59:18;8.53;;;7.62;;
26710;SDS011;18311;52.754;18.118;2022-08-04T05:04:59;9.93;;;9.00;;
26710;SDS011;18311;52.754;18.118;2022-08-04T05:24:34;10.18;;;9.18;;
26710;SDS011;18311;52.754;18.118;2022-08-04T05:27:12;9.68;;;8.78;;
26710;SDS011;18311;52.754;18.118;2022-08-04T05:29:45;9.05;;;8.33;;
26710;SDS011;18311;52.754;18.118;2022-08-04T05:32:19;13.10;;;11.85;;
26710;SDS011;18311;52.754;18.118;2022-08-04T05:34:57;18.25;;;14.00;;
26710;SDS011;18311;52.754;18.118;2022-08-04T05:37:29;18.60;;;16.60;;
26710;SDS011;18311;52.754;18.118;2022-08-04T05:40:03;15.48;;;13.98;;
26710;SDS011;18311;52.754;18.118;2022-08-04T05:42:37;12.88;;;11.20;;
26710;SDS011;18311;52.754;18.118;2022-08-04T05:45:11;10.48;;;9.50;;
26710;SDS011;18311;52.754;18.118;2022-08-04T05:47:43;10.78;;;9.58;;
26710;SDS011;18311;52.754;18.118;2022-08-04T05:50:14;10.53;;;9.50;;
26710;SDS011;18311;52.754;18.118;2022-08-04T05:52:47;9.63;;;8.83;;
26710;SDS011;18311;52.754;18.118;2022-08-04T05:55:24;9.85;;;8.93;;
26710;SDS011;18311;52.754;18.118;2022-08-04T05:57:58;9.98;;;9.00;;
26710;SDS011;18311;52.754;18.118;2022-08-04T06:00:32;9.40;;;8.50;;
26710;SDS011;18311;52.754;18.118;2022-08-04T06:03:05;9.90;;;8.90;;
26710;SDS011;18311;52.754;18.118;2022-08-04T06:05:40;10.18;;;9.08;;
26710;SDS011;18311;52.754;18.118;2022-08-04T06:08:12;14.73;;;13.22;;
26710;SDS011;18311;52.754;18.118;2022-08-04T06:10:43;14.55;;;13.03;;
26710;SDS011;18311;52.754;18.118;2022-08-04T06:13:18;12.25;;;11.15;;
26710;SDS011;18311;52.754;18.118;2022-08-04T06:15:54;10.75;;;9.75;;
26710;SDS011;18311;52.754;18.118;2022-08-04T06:18:28;9.68;;;8.78;;
26710;SDS011;18311;52.754;18.118;2022-08-04T06:21:02;10.08;;;9.15;;
26710;SDS011;18311;52.754;18.118;2022-08-04T06:23:36;9.83;;;8.90;;
26710;SDS011;18311;52.754;18.118;2022-08-04T06:26:11;10.30;;;9.40;;
26710;SDS011;18311;52.754;18.118;2022-08-04T06:31:20;9.68;;;8.73;;
26710;SDS011;18311;52.754;18.118;2022-08-04T06:34:13;10.38;;;8.83;;
26710;SDS011;18311;52.754;18.118;2022-08-04T06:36:45;10.20;;;9.20;;
26710;SDS011;18311;52.754;18.118;2022-08-04T06:39:17;9.68;;;8.88;;
26710;SDS011;18311;52.754;18.118;2022-08-04T06:41:51;9.60;;;8.80;;
26710;SDS011;18311;52.754;18.118;2022-08-04T06:44:25;10.38;;;8.70;;
26710;SDS011;18311;52.754;18.118;2022-08-04T06:46:58;10.10;;;9.15;;
26710;SDS011;18311;52.754;18.118;2022-08-04T06:49:31;9.93;;;8.73;;
26710;SDS011;18311;52.754;18.118;2022-08-04T06:52:06;9.65;;;8.75;;
26710;SDS011;18311;52.754;18.118;2022-08-04T06:54:36;9.60;;;8.65;;
26710;SDS011;18311;52.754;18.118;2022-08-04T06:57:07;9.98;;;9.08;;
26710;SDS011;18311;52.754;18.118;2022-08-04T06:59:41;10.25;;;9.30;;
26710;SDS011;18311;52.754;18.118;2022-08-04T07:02:14;9.88;;;8.98;;
26710;SDS011;18311;52.754;18.118;2022-08-04T07:04:48;10.30;;;9.40;;
26710;SDS011;18311;52.754;18.118;2022-08-04T07:07:19;10.10;;;9.20;;
26710;SDS011;18311;52.754;18.118;2022-08-04T07:09:54;10.32;;;9.33;;
26710;SDS011;18311;52.754;18.118;2022-08-04T07:12:25;10.43;;;9.33;;
26710;SDS011;18311;52.754;18.118;2022-08-04T07:14:57;10.68;;;9.15;;
26710;SDS011;18311;52.754;18.118;2022-08-04T07:17:29;10.28;;;9.28;;
26710;SDS011;18311;52.754;18.118;2022-08-04T07:20:06;12.23;;;9.23;;
26710;SDS011;18311;52.754;18.118;2022-08-04T07:22:37;9.85;;;8.90;;
26710;SDS011;18311;52.754;18.118;2022-08-04T07:25:13;9.83;;;8.93;;
26710;SDS011;18311;52.754;18.118;2022-08-04T07:27:46;11.08;;;9.03;;
26710;SDS011;18311;52.754;18.118;2022-08-04T07:30:17;9.98;;;9.05;;
26710;SDS011;18311;52.754;18.118;2022-08-04T07:32:53;9.85;;;8.88;;
26710;SDS011;18311;52.754;18.118;2022-08-04T07:35:23;10.28;;;9.18;;
26710;SDS011;18311;52.754;18.118;2022-08-04T07:38:02;13.03;;;9.63;;
26710;SDS011;18311;52.754;18.118;2022-08-04T07:40:33;11.78;;;9.15;;
26710;SDS011;18311;52.754;18.118;2022-08-04T07:43:06;10.25;;;8.05;;
26710;SDS011;18311;52.754;18.118;2022-08-04T07:45:38;9.80;;;8.30;;
26710;SDS011;18311;52.754;18.118;2022-08-04T07:48:09;9.33;;;8.43;;
26710;SDS011;18311;52.754;18.118;2022-08-04T07:50:42;10.18;;;8.50;;
26710;SDS011;18311;52.754;18.118;2022-08-04T07:53:14;9.53;;;8.68;;
26710;SDS011;18311;52.754;18.118;2022-08-04T07:55:47;9.33;;;8.53;;
26710;SDS011;18311;52.754;18.118;2022-08-04T07:58:19;9.15;;;8.25;;
26710;SDS011;18311;52.754;18.118;2022-08-04T08:00:50;9.88;;;8.63;;
26710;SDS011;18311;52.754;18.118;2022-08-04T08:03:22;9.30;;;8.40;;
26710;SDS011;18311;52.754;18.118;2022-08-04T08:05:54;9.38;;;8.40;;
26710;SDS011;18311;52.754;18.118;2022-08-04T08:08:28;9.90;;;8.08;;
26710;SDS011;18311;52.754;18.118;2022-08-04T08:10:59;8.50;;;7.80;;
26710;SDS011;18311;52.754;18.118;2022-08-04T08:13:30;7.50;;;6.72;;
26710;SDS011;18311;52.754;18.118;2022-08-04T08:16:02;8.10;;;6.70;;
26710;SDS011;18311;52.754;18.118;2022-08-04T08:18:34;7.60;;;6.90;;
26710;SDS011;18311;52.754;18.118;2022-08-04T08:21:05;6.80;;;6.20;;
26710;SDS011;18311;52.754;18.118;2022-08-04T08:23:36;6.75;;;6.15;;
26710;SDS011;18311;52.754;18.118;2022-08-04T08:26:08;6.92;;;6.10;;
26710;SDS011;18311;52.754;18.118;2022-08-04T08:28:39;9.03;;;6.37;;
26710;SDS011;18311;52.754;18.118;2022-08-04T08:31:10;7.17;;;6.17;;
26710;SDS011;18311;52.754;18.118;2022-08-04T08:33:52;7.40;;;6.80;;
26710;SDS011;18311;52.754;18.118;2022-08-04T08:39:02;7.23;;;6.63;;
26710;SDS011;18311;52.754;18.118;2022-08-04T08:50:51;6.00;;;5.40;;
26710;SDS011;18311;52.754;18.118;2022-08-04T09:10:53;6.72;;;6.12;;
26710;SDS011;18311;52.754;18.118;2022-08-04T09:13:23;6.58;;;5.97;;
26710;SDS011;18311;52.754;18.118;2022-08-04T09:19:11;6.50;;;5.83;;
26710;SDS011;18311;52.754;18.118;2022-08-04T09:27:26;5.87;;;4.53;;
26710;SDS011;18311;52.754;18.118;2022-08-04T09:30:20;5.75;;;4.50;;
26710;SDS011;18311;52.754;18.118;2022-08-04T09:32:59;6.33;;;4.90;;
26710;SDS011;18311;52.754;18.118;2022-08-04T09:38:31;5.20;;;4.70;;
26710;SDS011;18311;52.754;18.118;2022-08-04T09:46:35;6.62;;;4.80;;
26710;SDS011;18311;52.754;18.118;2022-08-04T10:00:05;5.00;;;4.60;;
26710;SDS011;18311;52.754;18.118;2022-08-04T10:02:47;4.55;;;4.15;;
26710;SDS011;18311;52.754;18.118;2022-08-04T10:05:19;5.70;;;5.20;;
26710;SDS011;18311;52.754;18.118;2022-08-04T10:10:42;5.17;;;4.67;;
26710;SDS011;18311;52.754;18.118;2022-08-04T10:13:51;5.53;;;5.03;;
26710;SDS011;18311;52.754;18.118;2022-08-04T10:16:17;5.92;;;5.42;;
26710;SDS011;18311;52.754;18.118;2022-08-04T10:19:05;5.75;;;5.12;;
26710;SDS011;18311;52.754;18.118;2022-08-04T10:30:06;5.60;;;4.35;;
26710;SDS011;18311;52.754;18.118;2022-08-04T10:35:21;5.05;;;4.65;;
26710;SDS011;18311;52.754;18.118;2022-08-04T10:40:44;5.20;;;4.80;;
26710;SDS011;18311;52.754;18.118;2022-08-04T10:46:28;5.00;;;4.50;;
26710;SDS011;18311;52.754;18.118;2022-08-04T10:49:09;4.95;;;4.50;;
26710;SDS011;18311;52.754;18.118;2022-08-04T11:00:07;5.45;;;4.95;;
26710;SDS011;18311;52.754;18.118;2022-08-04T11:05:44;4.92;;;4.45;;
26710;SDS011;18311;52.754;18.118;2022-08-04T11:08:20;4.87;;;4.30;;
26710;SDS011;18311;52.754;18.118;2022-08-04T11:16:35;7.58;;;5.40;;
26710;SDS011;18311;52.754;18.118;2022-08-04T11:19:10;5.67;;;5.20;;
26710;SDS011;18311;52.754;18.118;2022-08-04T11:21:46;5.62;;;5.20;;
26710;SDS011;18311;52.754;18.118;2022-08-04T11:24:22;5.28;;;4.87;;
26710;SDS011;18311;52.754;18.118;2022-08-04T11:27:18;7.53;;;5.35;;
26710;SDS011;18311;52.754;18.118;2022-08-04T11:29:59;5.58;;;4.80;;
26710;SDS011;18311;52.754;18.118;2022-08-04T11:32:41;5.70;;;5.22;;
26710;SDS011;18311;52.754;18.118;2022-08-04T11:35:18;5.95;;;5.40;;
26710;SDS011;18311;52.754;18.118;2022-08-04T11:41:04;6.55;;;5.42;;
26710;SDS011;18311;52.754;18.118;2022-08-04T11:46:31;6.33;;;5.67;;
26710;SDS011;18311;52.754;18.118;2022-08-04T11:49:07;6.28;;;5.72;;
26710;SDS011;18311;52.754;18.118;2022-08-04T11:51:42;6.62;;;6.03;;
26710;SDS011;18311;52.754;18.118;2022-08-04T11:54:15;5.95;;;5.45;;
26710;SDS011;18311;52.754;18.118;2022-08-04T11:56:47;5.95;;;5.35;;
26710;SDS011;18311;52.754;18.118;2022-08-04T11:59:20;6.12;;;4.92;;
26710;SDS011;18311;52.754;18.118;2022-08-04T12:02:01;5.90;;;5.40;;
26710;SDS011;18311;52.754;18.118;2022-08-04T12:07:37;5.58;;;5.08;;
26710;SDS011;18311;52.754;18.118;2022-08-04T12:13:05;5.50;;;5.10;;
26710;SDS011;18311;52.754;18.118;2022-08-04T12:24:19;5.50;;;5.08;;
26710;SDS011;18311;52.754;18.118;2022-08-04T12:26:58;5.65;;;5.25;;
26710;SDS011;18311;52.754;18.118;2022-08-04T12:29:27;6.50;;;5.33;;
26710;SDS011;18311;52.754;18.118;2022-08-04T12:32:10;5.70;;;5.20;;
26710;SDS011;18311;52.754;18.118;2022-08-04T12:34:39;5.97;;;5.47;;
26710;SDS011;18311;52.754;18.118;2022-08-04T12:40:07;6.60;;;5.40;;
26710;SDS011;18311;52.754;18.118;2022-08-04T12:45:54;5.60;;;5.05;;
26710;SDS011;18311;52.754;18.118;2022-08-04T12:48:27;7.10;;;5.17;;
26710;SDS011;18311;52.754;18.118;2022-08-04T12:53:39;7.30;;;5.50;;
26710;SDS011;18311;52.754;18.118;2022-08-04T12:56:14;5.87;;;5.37;;
26710;SDS011;18311;52.754;18.118;2022-08-04T12:58:48;6.50;;;5.22;;
26710;SDS011;18311;52.754;18.118;2022-08-04T13:01:21;8.85;;;5.20;;
26710;SDS011;18311;52.754;18.118;2022-08-04T13:04:02;5.75;;;5.03;;
26710;SDS011;18311;52.754;18.118;2022-08-04T13:06:34;6.80;;;5.08;;
26710;SDS011;18311;52.754;18.118;2022-08-04T13:09:08;5.60;;;5.20;;
26710;SDS011;18311;52.754;18.118;2022-08-04T13:11:48;5.70;;;5.20;;
26710;SDS011;18311;52.754;18.118;2022-08-04T13:14:20;5.97;;;5.30;;
26710;SDS011;18311;52.754;18.118;2022-08-04T13:17:00;6.15;;;5.28;;
26710;SDS011;18311;52.754;18.118;2022-08-04T13:19:32;5.72;;;5.22;;
26710;SDS011;18311;52.754;18.118;2022-08-04T13:22:05;5.75;;;5.25;;
26710;SDS011;18311;52.754;18.118;2022-08-04T13:24:39;5.75;;;5.35;;
26710;SDS011;18311;52.754;18.118;2022-08-04T13:27:13;6.22;;;5.37;;
26710;SDS011;18311;52.754;18.118;2022-08-04T13:29:48;5.67;;;5.27;;
26710;SDS011;18311;52.754;18.118;2022-08-04T13:32:24;5.78;;;5.30;;
26710;SDS011;18311;52.754;18.118;2022-08-04T13:34:58;6.55;;;5.75;;
26710;SDS011;18311;52.754;18.118;2022-08-04T13:37:35;5.67;;;5.15;;
26710;SDS011;18311;52.754;18.118;2022-08-04T13:40:08;6.50;;;6.00;;
26710;SDS011;18311;52.754;18.118;2022-08-04T13:42:41;5.90;;;5.30;;
26710;SDS011;18311;52.754;18.118;2022-08-04T13:45:15;6.15;;;5.53;;
26710;SDS011;18311;52.754;18.118;2022-08-04T13:47:50;5.97;;;5.37;;
26710;SDS011;18311;52.754;18.118;2022-08-04T13:50:30;5.60;;;5.10;;
26710;SDS011;18311;52.754;18.118;2022-08-04T13:53:03;6.58;;;5.75;;
26710;SDS011;18311;52.754;18.118;2022-08-04T13:55:35;5.17;;;4.78;;
26710;SDS011;18311;52.754;18.118;2022-08-04T14:00:43;5.85;;;5.35;;
26710;SDS011;18311;52.754;18.118;2022-08-04T14:03:24;5.60;;;5.12;;
26710;SDS011;18311;52.754;18.118;2022-08-04T14:06:20;6.10;;;5.60;;
26710;SDS011;18311;52.754;18.118;2022-08-04T14:09:23;5.95;;;5.25;;
26710;SDS011;18311;52.754;18.118;2022-08-04T14:12:06;6.70;;;6.10;;
26710;SDS011;18311;52.754;18.118;2022-08-04T14:14:44;6.75;;;5.62;;
26710;SDS011;18311;52.754;18.118;2022-08-04T14:17:24;6.13;;;5.63;;
26710;SDS011;18311;52.754;18.118;2022-08-04T14:19:57;6.10;;;5.53;;
26710;SDS011;18311;52.754;18.118;2022-08-04T14:22:31;6.08;;;5.53;;
26710;SDS011;18311;52.754;18.118;2022-08-04T14:25:10;5.80;;;5.30;;
26710;SDS011;18311;52.754;18.118;2022-08-04T14:27:48;6.33;;;5.80;;
26710;SDS011;18311;52.754;18.118;2022-08-04T14:30:30;6.70;;;6.15;;
26710;SDS011;18311;52.754;18.118;2022-08-04T14:33:07;6.75;;;5.80;;
26710;SDS011;18311;52.754;18.118;2022-08-04T14:35:41;6.00;;;5.40;;
26710;SDS011;18311;52.754;18.118;2022-08-04T14:38:16;6.20;;;5.70;;
26710;SDS011;18311;52.754;18.118;2022-08-04T14:40:47;6.00;;;5.40;;
26710;SDS011;18311;52.754;18.118;2022-08-04T14:43:18;5.05;;;4.65;;
26710;SDS011;18311;52.754;18.118;2022-08-04T14:45:50;6.55;;;5.70;;
26710;SDS011;18311;52.754;18.118;2022-08-04T14:48:25;5.65;;;4.97;;
26710;SDS011;18311;52.754;18.118;2022-08-04T14:50:56;6.12;;;5.62;;
26710;SDS011;18311;52.754;18.118;2022-08-04T14:53:28;5.42;;;4.92;;
26710;SDS011;18311;52.754;18.118;2022-08-04T14:55:59;5.72;;;5.22;;
26710;SDS011;18311;52.754;18.118;2022-08-04T14:58:31;5.33;;;4.92;;
26710;SDS011;18311;52.754;18.118;2022-08-04T15:01:06;6.42;;;5.50;;
26710;SDS011;18311;52.754;18.118;2022-08-04T15:03:41;9.88;;;5.42;;
26710;SDS011;18311;52.754;18.118;2022-08-04T15:06:15;5.97;;;5.37;;
26710;SDS011;18311;52.754;18.118;2022-08-04T15:08:49;5.80;;;5.10;;
26710;SDS011;18311;52.754;18.118;2022-08-04T15:11:23;5.87;;;5.22;;
26710;SDS011;18311;52.754;18.118;2022-08-04T15:13:54;6.17;;;5.50;;
26710;SDS011;18311;52.754;18.118;2022-08-04T15:16:28;5.62;;;5.12;;
26710;SDS011;18311;52.754;18.118;2022-08-04T15:19:00;9.45;;;5.37;;
26710;SDS011;18311;52.754;18.118;2022-08-04T15:21:31;6.10;;;5.60;;
26710;SDS011;18311;52.754;18.118;2022-08-04T15:24:04;6.15;;;5.12;;
26710;SDS011;18311;52.754;18.118;2022-08-04T15:26:37;5.45;;;5.05;;
26710;SDS011;18311;52.754;18.118;2022-08-04T15:29:11;6.37;;;5.00;;
26710;SDS011;18311;52.754;18.118;2022-08-04T15:31:46;5.08;;;4.67;;
26710;SDS011;18311;52.754;18.118;2022-08-04T15:34:20;5.13;;;4.73;;
26710;SDS011;18311;52.754;18.118;2022-08-04T15:36:52;5.33;;;4.83;;
26710;SDS011;18311;52.754;18.118;2022-08-04T15:42:29;5.62;;;5.12;;
26710;SDS011;18311;52.754;18.118;2022-08-04T15:45:16;5.28;;;4.78;;
26710;SDS011;18311;52.754;18.118;2022-08-04T15:50:38;6.83;;;4.95;;
26710;SDS011;18311;52.754;18.118;2022-08-04T15:53:13;5.20;;;4.80;;
26710;SDS011;18311;52.754;18.118;2022-08-04T15:55:46;5.30;;;4.80;;
26710;SDS011;18311;52.754;18.118;2022-08-04T15:58:21;5.75;;;4.40;;
26710;SDS011;18311;52.754;18.118;2022-08-04T16:22:03;4.75;;;4.35;;
26710;SDS011;18311;52.754;18.118;2022-08-04T16:24:35;4.92;;;4.50;;
26710;SDS011;18311;52.754;18.118;2022-08-04T16:27:11;4.92;;;4.37;;
26710;SDS011;18311;52.754;18.118;2022-08-04T16:29:44;7.42;;;4.92;;
26710;SDS011;18311;52.754;18.118;2022-08-04T16:32:22;4.87;;;4.47;;
26710;SDS011;18311;52.754;18.118;2022-08-04T16:34:55;4.60;;;4.20;;
26710;SDS011;18311;52.754;18.118;2022-08-04T16:43:02;5.40;;;4.22;;
26710;SDS011;18311;52.754;18.118;2022-08-04T16:45:45;4.90;;;4.40;;
26710;SDS011;18311;52.754;18.118;2022-08-04T16:48:18;5.33;;;4.80;;
26710;SDS011;18311;52.754;18.118;2022-08-04T16:56:26;6.28;;;4.80;;
26710;SDS011;18311;52.754;18.118;2022-08-04T16:59:06;5.03;;;4.53;;
26710;SDS011;18311;52.754;18.118;2022-08-04T17:01:52;5.40;;;4.50;;
26710;SDS011;18311;52.754;18.118;2022-08-04T17:04:27;6.85;;;4.37;;
26710;SDS011;18311;52.754;18.118;2022-08-04T17:07:03;4.67;;;4.28;;
26710;SDS011;18311;52.754;18.118;2022-08-04T17:09:36;6.00;;;4.60;;
26710;SDS011;18311;52.754;18.118;2022-08-04T17:12:09;5.00;;;4.60;;
26710;SDS011;18311;52.754;18.118;2022-08-04T17:14:42;4.40;;;4.00;;
26710;SDS011;18311;52.754;18.118;2022-08-04T17:17:14;4.67;;;4.28;;
26710;SDS011;18311;52.754;18.118;2022-08-04T17:19:51;5.80;;;4.35;;
26710;SDS011;18311;52.754;18.118;2022-08-04T17:22:22;5.85;;;4.03;;
26710;SDS011;18311;52.754;18.118;2022-08-04T17:24:54;6.30;;;4.60;;
26710;SDS011;18311;52.754;18.118;2022-08-04T17:27:28;5.03;;;4.60;;
26710;SDS011;18311;52.754;18.118;2022-08-04T17:30:00;4.60;;;4.20;;
26710;SDS011;18311;52.754;18.118;2022-08-04T17:32:32;5.03;;;4.20;;
26710;SDS011;18311;52.754;18.118;2022-08-04T17:35:04;6.70;;;4.35;;
26710;SDS011;18311;52.754;18.118;2022-08-04T17:37:36;6.08;;;4.47;;
26710;SDS011;18311;52.754;18.118;2022-08-04T17:40:14;5.90;;;4.40;;
26710;SDS011;18311;52.754;18.118;2022-08-04T17:42:47;4.47;;;3.95;;
26710;SDS011;18311;52.754;18.118;2022-08-04T17:45:19;4.75;;;4.10;;
26710;SDS011;18311;52.754;18.118;2022-08-04T17:47:52;5.35;;;4.30;;
26710;SDS011;18311;52.754;18.118;2022-08-04T17:50:25;6.62;;;4.22;;
26710;SDS011;18311;52.754;18.118;2022-08-04T17:53:05;7.20;;;4.10;;
26710;SDS011;18311;52.754;18.118;2022-08-04T17:55:41;6.83;;;4.25;;
26710;SDS011;18311;52.754;18.118;2022-08-04T17:58:18;8.23;;;4.80;;
26710;SDS011;18311;52.754;18.118;2022-08-04T18:00:58;6.55;;;4.35;;
26710;SDS011;18311;52.754;18.118;2022-08-04T18:03:38;7.00;;;4.53;;
26710;SDS011;18311;52.754;18.118;2022-08-04T18:06:11;5.47;;;4.75;;
26710;SDS011;18311;52.754;18.118;2022-08-04T18:08:43;4.90;;;4.40;;
26710;SDS011;18311;52.754;18.118;2022-08-04T18:11:19;5.62;;;4.70;;
26710;SDS011;18311;52.754;18.118;2022-08-04T18:13:52;6.30;;;5.20;;
26710;SDS011;18311;52.754;18.118;2022-08-04T18:16:24;7.00;;;5.22;;
26710;SDS011;18311;52.754;18.118;2022-08-04T18:19:12;5.20;;;4.60;;
26710;SDS011;18311;52.754;18.118;2022-08-04T18:21:46;5.90;;;5.30;;
26710;SDS011;18311;52.754;18.118;2022-08-04T18:24:20;6.97;;;5.13;;
26710;SDS011;18311;52.754;18.118;2022-08-04T18:26:53;8.55;;;5.05;;
26710;SDS011;18311;52.754;18.118;2022-08-04T18:29:24;5.53;;;4.95;;
26710;SDS011;18311;52.754;18.118;2022-08-04T18:31:57;8.05;;;5.40;;
26710;SDS011;18311;52.754;18.118;2022-08-04T18:34:29;6.35;;;5.75;;
26710;SDS011;18311;52.754;18.118;2022-08-04T18:37:00;6.97;;;5.75;;
26710;SDS011;18311;52.754;18.118;2022-08-04T18:39:34;6.80;;;6.17;;
26710;SDS011;18311;52.754;18.118;2022-08-04T18:42:06;6.45;;;5.80;;
26710;SDS011;18311;52.754;18.118;2022-08-04T18:44:38;6.90;;;5.72;;
26710;SDS011;18311;52.754;18.118;2022-08-04T18:47:11;6.47;;;5.87;;
26710;SDS011;18311;52.754;18.118;2022-08-04T18:49:43;6.75;;;5.90;;
26710;SDS011;18311;52.754;18.118;2022-08-04T18:52:16;9.18;;;6.20;;
26710;SDS011;18311;52.754;18.118;2022-08-04T18:54:49;7.28;;;6.42;;
26710;SDS011;18311;52.754;18.118;2022-08-04T18:57:21;8.83;;;6.58;;
26710;SDS011;18311;52.754;18.118;2022-08-04T18:59:56;8.43;;;6.65;;
26710;SDS011;18311;52.754;18.118;2022-08-04T19:02:29;7.70;;;6.35;;
26710;SDS011;18311;52.754;18.118;2022-08-04T19:05:01;8.28;;;6.25;;
26710;SDS011;18311;52.754;18.118;2022-08-04T19:07:32;7.50;;;6.60;;
26710;SDS011;18311;52.754;18.118;2022-08-04T19:10:06;10.88;;;8.35;;
26710;SDS011;18311;52.754;18.118;2022-08-04T19:12:39;8.75;;;7.87;;
26710;SDS011;18311;52.754;18.118;2022-08-04T19:15:12;8.60;;;7.72;;
26710;SDS011;18311;52.754;18.118;2022-08-04T19:17:45;8.73;;;7.83;;
26710;SDS011;18311;52.754;18.118;2022-08-04T19:20:20;8.63;;;7.78;;
26710;SDS011;18311;52.754;18.118;2022-08-04T19:22:53;8.48;;;7.67;;
26710;SDS011;18311;52.754;18.118;2022-08-04T19:25:26;8.23;;;7.42;;
26710;SDS011;18311;52.754;18.118;2022-08-04T19:28:00;8.65;;;7.75;;
26710;SDS011;18311;52.754;18.118;2022-08-04T19:30:34;8.48;;;7.67;;
26710;SDS011;18311;52.754;18.118;2022-08-04T19:33:09;8.75;;;7.33;;
26710;SDS011;18311;52.754;18.118;2022-08-04T19:35:42;9.60;;;7.80;;
26710;SDS011;18311;52.754;18.118;2022-08-04T19:38:15;8.88;;;7.58;;
26710;SDS011;18311;52.754;18.118;2022-08-04T19:40:50;8.35;;;7.62;;
26710;SDS011;18311;52.754;18.118;2022-08-04T19:43:23;9.88;;;7.20;;
26710;SDS011;18311;52.754;18.118;2022-08-04T19:45:56;7.75;;;6.95;;
26710;SDS011;18311;52.754;18.118;2022-08-04T19:48:28;8.43;;;7.53;;
26710;SDS011;18311;52.754;18.118;2022-08-04T19:51:00;9.75;;;7.30;;
26710;SDS011;18311;52.754;18.118;2022-08-04T19:53:32;9.88;;;7.22;;
26710;SDS011;18311;52.754;18.118;2022-08-04T19:56:06;9.03;;;7.30;;
26710;SDS011;18311;52.754;18.118;2022-08-04T19:58:37;7.22;;;6.53;;
26710;SDS011;18311;52.754;18.118;2022-08-04T20:01:12;8.35;;;7.05;;
26710;SDS011;18311;52.754;18.118;2022-08-04T20:03:45;7.87;;;6.50;;
26710;SDS011;18311;52.754;18.118;2022-08-04T20:06:18;8.20;;;6.22;;
26710;SDS011;18311;52.754;18.118;2022-08-04T20:08:51;11.10;;;6.95;;
26710;SDS011;18311;52.754;18.118;2022-08-04T20:11:24;7.75;;;6.95;;
26710;SDS011;18311;52.754;18.118;2022-08-04T20:13:56;7.22;;;6.40;;
26710;SDS011;18311;52.754;18.118;2022-08-04T20:16:29;7.65;;;6.10;;